createdAt,value
2019-03-19T00:01:45.792Z,18.90
2019-03-19T00:04:13.833Z,15.47
2019-03-19T00:06:41.797Z,11.90
2019-03-19T00:09:09.773Z,9.90
2019-03-19T00:11:38.069Z,11.17
2019-03-19T00:14:05.981Z,11.13
2019-03-19T00:16:33.892Z,10.57
2019-03-19T00:19:01.840Z,10.53
2019-03-19T00:21:29.829Z,11.27
2019-03-19T00:23:57.732Z,10.20
2019-03-19T00:26:25.784Z,10.20
2019-03-19T00:28:53.672Z,9.90
2019-03-19T00:31:21.744Z,10.00
2019-03-19T00:33:49.787Z,9.17
2019-03-19T00:36:17.789Z,8.93
2019-03-19T00:38:45.789Z,10.27
2019-03-19T00:41:13.790Z,9.50
2019-03-19T00:43:41.779Z,9.40
2019-03-19T00:46:09.874Z,8.33
2019-03-19T00:48:37.925Z,9.20
2019-03-19T00:51:05.974Z,8.67
2019-03-19T00:53:33.979Z,7.80
2019-03-19T00:56:02.003Z,7.40
2019-03-19T00:58:30.046Z,8.40
2019-03-19T01:00:58.051Z,8.60
2019-03-19T01:03:26.033Z,8.70
2019-03-19T01:05:54.014Z,10.37
2019-03-19T01:08:22.992Z,10.30
2019-03-19T01:10:50.984Z,9.33
2019-03-19T01:13:19.027Z,9.10
2019-03-19T01:15:47.028Z,8.50
2019-03-19T01:18:14.919Z,8.43
2019-03-19T01:20:42.900Z,8.60
2019-03-19T01:23:10.959Z,9.00
2019-03-19T01:25:39.649Z,8.47
2019-03-19T01:28:07.761Z,8.00
2019-03-19T01:30:35.752Z,7.97
2019-03-19T01:33:03.722Z,7.73
2019-03-19T01:35:31.802Z,8.67
2019-03-19T01:37:59.840Z,8.20
2019-03-19T01:40:27.949Z,8.60
2019-03-19T01:42:55.978Z,10.17
2019-03-19T01:45:23.977Z,10.47
2019-03-19T01:47:52.037Z,9.90
2019-03-19T01:50:20.152Z,9.43
2019-03-19T01:52:48.185Z,8.80
2019-03-19T01:55:16.291Z,8.10
2019-03-19T01:57:44.354Z,8.27
2019-03-19T02:00:12.419Z,7.37
2019-03-19T02:02:40.442Z,7.80
2019-03-19T02:05:08.400Z,9.40
2019-03-19T02:07:36.296Z,8.47
2019-03-19T02:10:04.768Z,7.80
2019-03-19T02:12:32.739Z,8.37
2019-03-19T02:15:00.750Z,7.23
2019-03-19T02:17:28.802Z,8.63
2019-03-19T02:19:56.805Z,8.47
2019-03-19T02:22:24.721Z,8.23
2019-03-19T02:24:52.709Z,8.13
2019-03-19T02:27:20.794Z,7.47
2019-03-19T02:29:48.822Z,8.53
2019-03-19T02:32:16.826Z,7.47
2019-03-19T02:34:44.869Z,7.27
2019-03-19T02:37:12.907Z,7.87
2019-03-19T02:39:41.230Z,7.27
2019-03-19T02:42:09.199Z,7.07
2019-03-19T02:44:37.162Z,9.00
2019-03-19T02:47:05.174Z,8.90
2019-03-19T02:49:33.200Z,9.30
2019-03-19T02:52:01.279Z,10.20
2019-03-19T02:54:29.276Z,9.60
2019-03-19T02:56:57.345Z,8.40
2019-03-19T02:59:25.421Z,8.07
2019-03-19T03:01:53.477Z,8.40
2019-03-19T03:04:21.534Z,8.37
2019-03-19T03:06:49.543Z,8.10
2019-03-19T03:09:17.553Z,7.70
2019-03-19T03:11:45.550Z,8.53
2019-03-19T03:14:13.623Z,8.87
2019-03-19T03:16:41.791Z,9.40
2019-03-19T03:19:09.840Z,8.50
2019-03-19T03:21:37.866Z,9.60
2019-03-19T03:24:05.893Z,8.90
2019-03-19T03:26:46.863Z,8.20
2019-03-19T03:29:03.601Z,7.93
2019-03-19T03:31:31.666Z,8.80
2019-03-19T03:34:00.658Z,8.63
2019-03-19T03:36:28.705Z,8.70
2019-03-19T03:38:56.696Z,8.87
2019-03-19T03:41:24.751Z,9.23
2019-03-19T03:43:52.741Z,8.33
2019-03-19T03:46:20.817Z,9.10
2019-03-19T03:48:48.870Z,9.50
2019-03-19T03:51:16.990Z,8.90
2019-03-19T03:53:45.018Z,8.80
2019-03-19T03:56:14.023Z,8.23
2019-03-19T03:58:42.103Z,8.17
2019-03-19T04:01:10.165Z,7.57
2019-03-19T04:03:38.235Z,7.70
2019-03-19T04:06:06.297Z,8.00
2019-03-19T04:08:34.404Z,7.50
2019-03-19T04:11:02.425Z,8.47
2019-03-19T04:13:30.822Z,8.30
2019-03-19T04:15:58.881Z,9.23
2019-03-19T04:18:26.889Z,8.97
2019-03-19T04:20:54.925Z,8.50
2019-03-19T04:23:22.897Z,8.40
2019-03-19T04:25:50.860Z,8.70
2019-03-19T04:28:18.938Z,8.53
2019-03-19T04:30:47.013Z,8.70
2019-03-19T04:33:15.078Z,8.70
2019-03-19T04:35:43.562Z,7.90
2019-03-19T04:38:11.629Z,7.77
2019-03-19T04:40:39.580Z,7.57
2019-03-19T04:43:07.584Z,8.20
2019-03-19T04:45:35.526Z,7.93
2019-03-19T04:48:03.786Z,6.97
2019-03-19T04:50:31.978Z,6.67
2019-03-19T04:52:59.975Z,7.40
2019-03-19T04:55:28.026Z,7.90
2019-03-19T04:57:56.314Z,7.23
2019-03-19T05:00:24.387Z,10.10
2019-03-19T05:02:52.437Z,7.00
2019-03-19T05:05:20.403Z,6.90
2019-03-19T05:07:48.403Z,6.80
2019-03-19T05:10:16.436Z,7.33
2019-03-19T05:12:44.450Z,7.10
2019-03-19T05:15:12.595Z,7.47
2019-03-19T05:17:40.569Z,6.83
2019-03-19T05:20:08.910Z,7.13
2019-03-19T05:22:36.920Z,7.30
2019-03-19T05:25:05.153Z,6.83
2019-03-19T05:27:37.252Z,7.53
2019-03-19T05:30:02.760Z,7.30
2019-03-19T05:32:31.251Z,8.17
2019-03-19T05:34:59.221Z,8.40
2019-03-19T05:37:27.287Z,8.80
2019-03-19T05:39:55.269Z,8.97
2019-03-19T05:42:23.348Z,8.30
2019-03-19T05:44:51.385Z,9.10
2019-03-19T05:47:19.374Z,8.90
2019-03-19T05:49:47.454Z,8.70
2019-03-19T05:52:15.359Z,10.10
2019-03-19T05:54:43.384Z,8.87
2019-03-19T05:57:11.471Z,9.20
2019-03-19T05:59:40.113Z,9.47
2019-03-19T06:02:08.101Z,10.37
2019-03-19T06:04:36.082Z,9.13
2019-03-19T06:07:04.277Z,9.43
2019-03-19T06:09:32.337Z,9.97
2019-03-19T06:12:00.390Z,8.50
2019-03-19T06:14:28.373Z,9.73
2019-03-19T06:16:56.345Z,9.50
2019-03-19T06:19:24.330Z,8.17
2019-03-19T06:21:52.422Z,10.90
2019-03-19T06:24:20.522Z,14.87
2019-03-19T06:26:48.519Z,12.20
2019-03-19T06:29:16.591Z,10.13
2019-03-19T06:31:44.658Z,9.57
2019-03-19T06:34:12.645Z,9.97
2019-03-19T06:36:40.745Z,9.43
2019-03-19T06:39:08.743Z,10.10
2019-03-19T06:41:37.227Z,10.07
2019-03-19T06:44:05.221Z,9.70
2019-03-19T06:46:33.293Z,8.40
2019-03-19T06:49:01.385Z,8.93
2019-03-19T06:51:29.445Z,9.23
2019-03-19T06:53:57.519Z,8.20
2019-03-19T06:56:25.564Z,8.60
2019-03-19T06:58:53.548Z,9.80
2019-03-19T07:01:21.595Z,10.07
2019-03-19T07:03:49.628Z,10.37
2019-03-19T07:06:17.647Z,10.73
2019-03-19T07:08:45.630Z,10.30
2019-03-19T07:11:13.896Z,10.40
2019-03-19T07:13:42.309Z,10.83
2019-03-19T07:16:10.234Z,10.93
2019-03-19T07:18:38.285Z,10.57
2019-03-19T07:21:06.296Z,11.10
2019-03-19T07:23:34.374Z,10.57
2019-03-19T07:26:02.425Z,10.63
2019-03-19T07:28:30.445Z,11.10
2019-03-19T07:30:58.486Z,12.90
2019-03-19T07:33:26.551Z,13.10
2019-03-19T07:35:54.539Z,12.20
2019-03-19T07:38:22.649Z,11.47
2019-03-19T07:40:50.541Z,10.40
2019-03-19T07:43:18.600Z,11.23
2019-03-19T07:45:46.613Z,10.93
2019-03-19T07:48:14.666Z,12.40
2019-03-19T07:50:42.779Z,11.47
2019-03-19T07:53:10.859Z,12.33
2019-03-19T07:55:38.907Z,11.00
2019-03-19T07:58:06.948Z,11.40
2019-03-19T08:00:35.233Z,12.10
2019-03-19T08:03:03.327Z,12.53
2019-03-19T08:05:33.448Z,11.70
2019-03-19T08:08:01.085Z,11.60
2019-03-19T08:10:29.149Z,10.73
2019-03-19T08:12:57.144Z,11.63
2019-03-19T08:15:25.218Z,12.07
2019-03-19T08:17:53.264Z,12.70
2019-03-19T08:20:21.303Z,12.20
2019-03-19T08:22:49.315Z,12.50
2019-03-19T08:25:17.405Z,12.43
2019-03-19T08:27:45.445Z,12.90
2019-03-19T08:30:14.493Z,14.00
2019-03-19T08:32:42.410Z,14.50
2019-03-19T08:35:10.409Z,14.07
2019-03-19T08:37:38.441Z,14.07
2019-03-19T08:40:07.062Z,13.90
2019-03-19T08:42:35.134Z,13.60
2019-03-19T08:45:03.182Z,13.10
2019-03-19T08:47:31.270Z,12.97
2019-03-19T08:49:59.317Z,13.17
2019-03-19T08:52:27.294Z,13.10
2019-03-19T08:54:55.416Z,12.63
2019-03-19T08:57:23.316Z,12.30
2019-03-19T08:59:51.306Z,12.47
2019-03-19T09:02:19.353Z,11.77
2019-03-19T09:04:47.359Z,11.70
2019-03-19T09:07:15.314Z,10.30
2019-03-19T09:09:43.404Z,9.60
2019-03-19T09:12:11.432Z,9.70
2019-03-19T09:14:39.830Z,10.03
2019-03-19T09:17:07.894Z,9.70
2019-03-19T09:19:35.880Z,10.20
2019-03-19T09:22:03.886Z,9.77
2019-03-19T09:24:31.947Z,11.23
2019-03-19T09:26:59.995Z,14.63
2019-03-19T09:29:28.073Z,9.57
2019-03-19T09:31:56.154Z,9.27
2019-03-19T09:34:24.197Z,9.20
2019-03-19T09:36:57.183Z,9.57
2019-03-19T09:39:21.864Z,8.90
2019-03-19T09:41:49.872Z,7.90
2019-03-19T09:44:17.838Z,8.60
2019-03-19T09:46:45.892Z,8.57
2019-03-19T09:49:13.961Z,8.40
2019-03-19T09:51:41.937Z,8.07
2019-03-19T09:54:10.023Z,8.53
2019-03-19T09:56:38.071Z,7.90
2019-03-19T09:59:06.063Z,8.20
2019-03-19T10:01:34.121Z,9.00
2019-03-19T10:04:02.275Z,9.50
2019-03-19T10:06:30.258Z,8.87
2019-03-19T10:08:58.267Z,10.67
2019-03-19T10:11:26.303Z,8.90
2019-03-19T10:13:54.387Z,8.03
2019-03-19T10:16:22.425Z,8.50
2019-03-19T10:18:50.381Z,8.43
2019-03-19T10:21:18.310Z,9.23
2019-03-19T10:23:46.354Z,8.30
2019-03-19T10:26:14.361Z,9.17
2019-03-19T10:28:42.381Z,9.20
2019-03-19T10:31:10.362Z,8.47
2019-03-19T10:33:38.321Z,8.40
2019-03-19T10:36:06.274Z,9.57
2019-03-19T10:38:34.269Z,8.40
2019-03-19T10:41:02.328Z,8.60
2019-03-19T10:43:30.302Z,8.30
2019-03-19T10:45:58.366Z,7.60
2019-03-19T10:48:26.570Z,8.40
2019-03-19T10:50:54.622Z,8.33
2019-03-19T10:53:23.617Z,8.63
2019-03-19T10:55:52.977Z,9.90
2019-03-19T10:58:20.889Z,8.60
2019-03-19T11:00:48.965Z,8.80
2019-03-19T11:03:17.028Z,8.27
2019-03-19T11:05:45.130Z,8.10
2019-03-19T11:08:13.170Z,8.30
2019-03-19T11:10:41.369Z,8.87
2019-03-19T11:13:09.398Z,8.60
2019-03-19T11:15:37.401Z,8.77
2019-03-19T11:18:05.535Z,8.70
2019-03-19T11:20:33.541Z,8.87
2019-03-19T11:23:01.650Z,8.00
2019-03-19T11:25:29.689Z,9.13
2019-03-19T11:27:57.755Z,10.33
2019-03-19T11:30:25.720Z,8.83
2019-03-19T11:32:53.773Z,8.13
2019-03-19T11:35:21.930Z,9.03
2019-03-19T11:37:50.002Z,7.80
2019-03-19T11:40:18.171Z,8.50
2019-03-19T11:42:46.149Z,8.70
2019-03-19T11:45:14.460Z,8.73
2019-03-19T11:47:42.716Z,8.23
2019-03-19T11:50:12.345Z,8.57
2019-03-19T11:52:40.310Z,8.10
2019-03-19T11:55:08.320Z,8.50
2019-03-19T11:57:36.239Z,9.53
2019-03-19T12:00:11.212Z,9.23
2019-03-19T12:02:35.503Z,8.43
2019-03-19T12:05:03.515Z,8.30
2019-03-19T12:07:31.500Z,9.00
2019-03-19T12:09:59.595Z,8.70
2019-03-19T12:12:27.640Z,8.60
2019-03-19T12:14:55.584Z,9.20
2019-03-19T12:17:23.564Z,9.47
2019-03-19T12:19:51.948Z,9.20
2019-03-19T12:22:19.965Z,9.03
2019-03-19T12:24:48.355Z,8.43
2019-03-19T12:27:17.036Z,9.30
2019-03-19T12:29:45.565Z,8.77
2019-03-19T12:32:14.368Z,8.70
2019-03-19T12:34:42.319Z,8.87
2019-03-19T12:37:10.336Z,9.80
2019-03-19T12:39:38.277Z,8.47
2019-03-19T12:42:06.249Z,8.87
2019-03-19T12:44:34.206Z,9.60
2019-03-19T12:47:02.516Z,8.67
2019-03-19T12:49:30.730Z,11.10
2019-03-19T12:51:58.734Z,10.17
2019-03-19T12:54:26.799Z,10.23
2019-03-19T12:56:54.985Z,14.90
2019-03-19T12:59:23.174Z,10.27
2019-03-19T13:01:51.993Z,11.07
2019-03-19T13:04:19.987Z,11.10
2019-03-19T13:06:47.966Z,10.67
2019-03-19T13:09:16.055Z,10.27
2019-03-19T13:11:44.704Z,10.83
2019-03-19T13:14:12.724Z,11.37
2019-03-19T13:16:42.828Z,10.83
2019-03-19T13:19:10.472Z,10.33
2019-03-19T13:21:38.750Z,9.33
2019-03-19T13:24:06.714Z,9.33
2019-03-19T13:26:34.708Z,10.43
2019-03-19T13:29:02.673Z,9.67
2019-03-19T13:31:30.745Z,9.70
2019-03-19T13:33:58.701Z,10.40
2019-03-19T13:36:26.689Z,10.00
2019-03-19T13:38:54.774Z,10.83
2019-03-19T13:41:22.814Z,10.60
2019-03-19T13:43:50.892Z,10.00
2019-03-19T13:46:18.856Z,10.10
2019-03-19T13:48:46.860Z,10.10
2019-03-19T13:51:14.904Z,10.57
2019-03-19T13:53:42.863Z,11.07
2019-03-19T13:56:10.926Z,9.47
2019-03-19T13:58:38.953Z,9.00
2019-03-19T14:01:06.997Z,9.43
2019-03-19T14:03:35.029Z,9.77
2019-03-19T14:06:03.078Z,10.13
2019-03-19T14:08:31.084Z,10.00
2019-03-19T14:10:59.164Z,10.17
2019-03-19T14:13:27.235Z,11.20
2019-03-19T14:15:55.297Z,9.90
2019-03-19T14:18:23.287Z,10.70
2019-03-19T14:20:51.743Z,10.77
2019-03-19T14:23:19.771Z,10.27
2019-03-19T14:25:47.771Z,10.90
2019-03-19T14:28:15.796Z,9.43
2019-03-19T14:30:43.732Z,10.10
2019-03-19T14:33:11.803Z,10.20
2019-03-19T14:35:39.871Z,10.60
2019-03-19T14:38:07.965Z,10.63
2019-03-19T14:40:35.940Z,10.10
2019-03-19T14:43:04.299Z,10.27
2019-03-19T14:45:32.377Z,9.27
2019-03-19T14:48:00.432Z,9.60
2019-03-19T14:50:28.424Z,9.20
2019-03-19T14:52:56.490Z,9.10
2019-03-19T14:55:24.637Z,9.80
2019-03-19T14:57:52.633Z,9.13
2019-03-19T15:00:20.761Z,10.47
2019-03-19T15:02:48.793Z,9.33
2019-03-19T15:05:16.815Z,9.57
2019-03-19T15:07:44.776Z,8.53
2019-03-19T15:10:13.642Z,8.10
2019-03-19T15:12:41.666Z,8.37
2019-03-19T15:15:10.142Z,8.53
2019-03-19T15:17:38.328Z,8.10
2019-03-19T15:20:07.237Z,8.70
2019-03-19T15:22:35.341Z,8.53
2019-03-19T15:25:03.334Z,9.37
2019-03-19T15:27:32.332Z,9.73
2019-03-19T15:30:00.621Z,10.03
2019-03-19T15:32:28.855Z,9.80
2019-03-19T15:34:56.853Z,9.67
2019-03-19T15:37:24.839Z,9.13
2019-03-19T15:39:52.900Z,8.47
2019-03-19T15:42:21.241Z,9.37
2019-03-19T15:44:49.241Z,8.50
2019-03-19T15:47:17.901Z,9.37
2019-03-19T15:49:45.894Z,9.33
2019-03-19T15:52:13.870Z,8.77
2019-03-19T15:54:42.990Z,9.20
2019-03-19T15:57:11.066Z,9.70
2019-03-19T15:59:40.471Z,9.43
2019-03-19T16:02:08.517Z,8.83
2019-03-19T16:04:36.488Z,10.40
2019-03-19T16:07:04.451Z,10.30
2019-03-19T16:09:32.424Z,11.33
2019-03-19T16:12:00.943Z,12.40
2019-03-19T16:14:28.989Z,20.23
2019-03-19T16:16:57.098Z,12.10
2019-03-19T16:19:25.174Z,13.67
2019-03-19T16:21:53.225Z,10.00
2019-03-19T16:24:21.305Z,9.90
2019-03-19T16:26:49.538Z,9.73
2019-03-19T16:29:17.538Z,9.83
2019-03-19T16:31:50.808Z,11.33
2019-03-19T16:34:15.295Z,10.00
2019-03-19T16:36:43.258Z,10.40
2019-03-19T16:39:12.015Z,11.20
2019-03-19T16:41:40.001Z,10.60
2019-03-19T16:44:07.981Z,13.23
2019-03-19T16:46:35.956Z,11.40
2019-03-19T16:49:04.133Z,9.83
2019-03-19T16:51:32.220Z,9.80
2019-03-19T16:54:00.432Z,9.20
2019-03-19T16:56:28.432Z,9.30
2019-03-19T16:58:56.503Z,10.67
2019-03-19T17:01:24.802Z,10.87
2019-03-19T17:03:52.842Z,11.57
2019-03-19T17:06:20.809Z,9.63
2019-03-19T17:08:48.890Z,9.47
2019-03-19T17:11:16.863Z,10.00
2019-03-19T17:13:44.848Z,9.70
2019-03-19T17:16:12.893Z,9.83
2019-03-19T17:18:40.974Z,8.97
2019-03-19T17:21:09.044Z,9.70
2019-03-19T17:23:37.076Z,9.80
2019-03-19T17:26:05.131Z,9.47
2019-03-19T17:28:33.802Z,9.77
2019-03-19T17:31:01.772Z,10.60
2019-03-19T17:33:29.822Z,10.13
2019-03-19T17:35:57.896Z,9.93
2019-03-19T17:38:25.975Z,9.93
2019-03-19T17:40:54.049Z,10.17
2019-03-19T17:43:22.120Z,9.43
2019-03-19T17:45:50.055Z,9.80
2019-03-19T17:48:18.057Z,10.30
2019-03-19T17:50:46.537Z,11.10
2019-03-19T17:53:14.584Z,10.50
2019-03-19T17:55:42.579Z,11.07
2019-03-19T17:58:10.799Z,11.50
2019-03-19T18:00:40.560Z,11.17
2019-03-19T18:03:08.609Z,10.30
2019-03-19T18:05:36.592Z,13.70
2019-03-19T18:08:04.675Z,16.93
2019-03-19T18:10:32.761Z,15.70
2019-03-19T18:13:00.706Z,15.30
2019-03-19T18:15:28.796Z,11.40
2019-03-19T18:17:57.153Z,10.77
2019-03-19T18:20:25.235Z,11.03
2019-03-19T18:22:53.525Z,10.37
2019-03-19T18:25:21.621Z,12.03
2019-03-19T18:27:49.839Z,11.83
2019-03-19T18:30:18.844Z,10.70
2019-03-19T18:32:47.133Z,10.43
2019-03-19T18:35:15.319Z,10.50
2019-03-19T18:37:43.380Z,11.93
2019-03-19T18:40:11.470Z,12.33
2019-03-19T18:42:39.586Z,12.00
2019-03-19T18:45:07.628Z,11.43
2019-03-19T18:47:35.654Z,10.83
2019-03-19T18:50:04.752Z,10.97
2019-03-19T18:52:33.753Z,11.27
2019-03-19T18:55:01.813Z,12.30
2019-03-19T18:57:29.937Z,12.80
2019-03-19T18:59:57.939Z,12.90
2019-03-19T19:02:26.288Z,13.23
2019-03-19T19:04:54.395Z,12.77
2019-03-19T19:07:22.416Z,15.50
2019-03-19T19:09:50.445Z,15.40
2019-03-19T19:12:18.505Z,13.60
2019-03-19T19:14:46.496Z,11.40
2019-03-19T19:17:14.478Z,11.50
2019-03-19T19:19:42.644Z,12.80
2019-03-19T19:22:10.720Z,11.37
2019-03-19T19:24:38.854Z,11.03
2019-03-19T19:27:07.505Z,10.80
2019-03-19T19:29:35.489Z,11.97
2019-03-19T19:32:05.963Z,12.17
2019-03-19T19:34:34.039Z,12.20
2019-03-19T19:37:02.112Z,11.20
2019-03-19T19:39:30.173Z,12.13
2019-03-19T19:41:58.342Z,12.10
2019-03-19T19:44:26.307Z,12.63
2019-03-19T19:46:54.293Z,11.70
2019-03-19T19:49:22.385Z,12.40
2019-03-19T19:51:50.844Z,12.63
2019-03-19T19:54:18.814Z,12.90
2019-03-19T19:56:46.888Z,12.43
2019-03-19T19:59:14.865Z,13.10
2019-03-19T20:01:42.939Z,12.40
2019-03-19T20:04:10.996Z,12.50
2019-03-19T20:06:39.080Z,14.13
2019-03-19T20:09:07.864Z,13.80
2019-03-19T20:11:35.894Z,13.03
2019-03-19T20:14:03.894Z,11.87
2019-03-19T20:16:31.970Z,10.93
2019-03-19T20:19:00.031Z,12.40
2019-03-19T20:21:28.035Z,11.90
2019-03-19T20:23:56.138Z,9.77
2019-03-19T20:26:24.193Z,9.93
2019-03-19T20:28:52.255Z,8.50
2019-03-19T20:31:20.324Z,9.23
2019-03-19T20:33:48.464Z,9.20
2019-03-19T20:36:18.562Z,8.30
2019-03-19T20:38:46.572Z,9.73
2019-03-19T20:41:14.619Z,10.10
2019-03-19T20:43:42.734Z,10.97
2019-03-19T20:46:10.751Z,14.20
2019-03-19T20:48:38.734Z,37.93
2019-03-19T20:51:06.821Z,18.50
2019-03-19T20:53:34.914Z,18.80
2019-03-19T20:56:04.261Z,21.20
2019-03-19T20:58:42.852Z,11.10
2019-03-19T21:01:01.937Z,11.57
2019-03-19T21:03:35.967Z,12.50
2019-03-19T21:06:00.951Z,13.60
2019-03-19T21:08:28.954Z,12.67
2019-03-19T21:10:56.977Z,11.80
2019-03-19T21:13:25.381Z,10.80
2019-03-19T21:15:53.470Z,11.87
2019-03-19T21:18:21.824Z,11.90
2019-03-19T21:20:50.109Z,11.37
2019-03-19T21:23:18.165Z,11.07
2019-03-19T21:25:46.183Z,10.50
2019-03-19T21:28:14.706Z,9.80
2019-03-19T21:30:42.800Z,10.80
2019-03-19T21:33:10.816Z,9.80
2019-03-19T21:35:38.877Z,10.00
2019-03-19T21:38:06.835Z,9.60
2019-03-19T21:40:34.894Z,9.97
2019-03-19T21:43:03.106Z,10.50
2019-03-19T21:45:31.130Z,10.80
2019-03-19T21:47:59.283Z,12.03
2019-03-19T21:50:29.310Z,11.27
2019-03-19T21:52:57.319Z,12.10
2019-03-19T21:55:25.406Z,11.30
2019-03-19T21:57:54.498Z,12.83
2019-03-19T22:00:22.545Z,13.00
2019-03-19T22:02:50.617Z,12.90
2019-03-19T22:05:18.699Z,13.10
2019-03-19T22:07:47.148Z,11.70
2019-03-19T22:10:15.228Z,11.80
2019-03-19T22:12:43.345Z,10.70
2019-03-19T22:15:13.932Z,10.93
2019-03-19T22:17:43.538Z,10.30
2019-03-19T22:20:11.747Z,12.33
2019-03-19T22:22:39.687Z,13.70
2019-03-19T22:25:08.396Z,13.93
2019-03-19T22:27:36.604Z,14.73
2019-03-19T22:30:05.190Z,13.53
2019-03-19T22:32:33.218Z,13.47
2019-03-19T22:35:01.368Z,12.03
2019-03-19T22:37:29.451Z,13.43
2019-03-19T22:39:57.537Z,13.13
2019-03-19T22:42:25.628Z,12.70
2019-03-19T22:44:53.567Z,11.87
2019-03-19T22:47:21.641Z,12.80
2019-03-19T22:49:49.696Z,11.83
2019-03-19T22:52:17.834Z,12.30
2019-03-19T22:54:45.838Z,12.93
2019-03-19T22:57:13.810Z,11.50
2019-03-19T22:59:41.917Z,10.60
2019-03-19T23:02:09.979Z,11.30
2019-03-19T23:04:37.898Z,9.97
2019-03-19T23:07:06.412Z,10.60
2019-03-19T23:09:34.390Z,11.70
2019-03-19T23:12:02.438Z,10.13
2019-03-19T23:14:30.563Z,11.17
2019-03-19T23:16:58.626Z,48.70
2019-03-19T23:19:26.642Z,55.93
2019-03-19T23:21:54.629Z,17.23
2019-03-19T23:24:22.676Z,22.77
2019-03-19T23:26:50.877Z,12.80
2019-03-19T23:29:18.944Z,12.20
2019-03-19T23:31:48.968Z,11.83
2019-03-19T23:34:16.999Z,10.47
2019-03-19T23:36:45.002Z,9.83
2019-03-19T23:39:13.123Z,12.90
2019-03-19T23:41:41.026Z,13.43
2019-03-19T23:44:09.014Z,8.67
2019-03-19T23:46:37.376Z,11.20
2019-03-19T23:49:05.463Z,9.70
2019-03-19T23:51:33.488Z,8.90
2019-03-19T23:54:01.598Z,8.90
2019-03-19T23:56:30.225Z,8.80
2019-03-19T23:58:58.281Z,8.43
